sensor_id;sensor_type;location;lat;lon;timestamp;P1;durP1;ratioP1;P2;durP2;ratioP2
16387;SDS011;8303;53.446;9.988;2023-02-15T05:47:44;54.87;;;25.83;;
16387;SDS011;8303;53.446;9.988;2023-02-15T05:50:12;73.37;;;28.60;;
16387;SDS011;8303;53.446;9.988;2023-02-15T05:52:39;67.63;;;29.13;;
16387;SDS011;8303;53.446;9.988;2023-02-15T05:55:06;61.53;;;28.20;;
16387;SDS011;8303;53.446;9.988;2023-02-15T05:57:33;66.43;;;27.47;;
16387;SDS011;8303;53.446;9.988;2023-02-15T06:00:01;63.53;;;26.97;;
16387;SDS011;8303;53.446;9.988;2023-02-15T06:02:29;109.73;;;28.70;;
16387;SDS011;8303;53.446;9.988;2023-02-15T06:05:00;79.53;;;27.10;;
16387;SDS011;8303;53.446;9.988;2023-02-15T06:07:27;71.57;;;27.63;;
16387;SDS011;8303;53.446;9.988;2023-02-15T06:09:54;70.57;;;27.27;;
16387;SDS011;8303;53.446;9.988;2023-02-15T06:12:20;65.83;;;27.50;;
16387;SDS011;8303;53.446;9.988;2023-02-15T06:14:47;82.53;;;25.97;;
16387;SDS011;8303;53.446;9.988;2023-02-15T06:17:14;62.77;;;26.07;;
16387;SDS011;8303;53.446;9.988;2023-02-15T06:19:42;65.40;;;27.23;;
16387;SDS011;8303;53.446;9.988;2023-02-15T06:22:10;65.67;;;27.27;;
16387;SDS011;8303;53.446;9.988;2023-02-15T06:24:38;61.37;;;27.17;;
16387;SDS011;8303;53.446;9.988;2023-02-15T06:27:07;55.60;;;27.20;;
16387;SDS011;8303;53.446;9.988;2023-02-15T06:29:34;47.53;;;24.93;;
16387;SDS011;8303;53.446;9.988;2023-02-15T06:32:01;51.77;;;24.90;;
16387;SDS011;8303;53.446;9.988;2023-02-15T06:34:28;58.67;;;27.40;;
16387;SDS011;8303;53.446;9.988;2023-02-15T06:36:55;44.40;;;26.03;;
16387;SDS011;8303;53.446;9.988;2023-02-15T06:39:23;53.37;;;25.97;;
16387;SDS011;8303;53.446;9.988;2023-02-15T06:41:50;72.07;;;27.80;;
16387;SDS011;8303;53.446;9.988;2023-02-15T06:44:16;49.43;;;26.00;;
16387;SDS011;8303;53.446;9.988;2023-02-15T06:46:43;79.70;;;27.47;;
16387;SDS011;8303;53.446;9.988;2023-02-15T06:49:10;132.43;;;30.53;;
16387;SDS011;8303;53.446;9.988;2023-02-15T06:51:37;55.70;;;27.80;;
16387;SDS011;8303;53.446;9.988;2023-02-15T06:54:04;52.07;;;26.33;;
16387;SDS011;8303;53.446;9.988;2023-02-15T06:56:32;59.33;;;27.17;;
16387;SDS011;8303;53.446;9.988;2023-02-15T06:58:59;59.97;;;25.93;;
16387;SDS011;8303;53.446;9.988;2023-02-15T07:01:26;61.33;;;27.37;;
16387;SDS011;8303;53.446;9.988;2023-02-15T07:03:53;49.53;;;26.80;;
16387;SDS011;8303;53.446;9.988;2023-02-15T07:06:20;55.07;;;25.73;;
16387;SDS011;8303;53.446;9.988;2023-02-15T07:08:47;58.77;;;25.90;;
16387;SDS011;8303;53.446;9.988;2023-02-15T07:11:14;69.33;;;26.37;;
16387;SDS011;8303;53.446;9.988;2023-02-15T07:14:00;76.77;;;28.70;;
16387;SDS011;8303;53.446;9.988;2023-02-15T07:16:26;105.07;;;28.20;;
16387;SDS011;8303;53.446;9.988;2023-02-15T07:18:53;113.20;;;29.10;;
16387;SDS011;8303;53.446;9.988;2023-02-15T07:21:20;84.10;;;27.03;;
16387;SDS011;8303;53.446;9.988;2023-02-15T07:23:47;61.70;;;28.43;;
16387;SDS011;8303;53.446;9.988;2023-02-15T07:26:14;81.30;;;27.53;;
16387;SDS011;8303;53.446;9.988;2023-02-15T07:28:41;74.90;;;29.03;;
16387;SDS011;8303;53.446;9.988;2023-02-15T07:31:09;71.37;;;26.90;;
16387;SDS011;8303;53.446;9.988;2023-02-15T07:33:36;85.13;;;28.53;;
16387;SDS011;8303;53.446;9.988;2023-02-15T07:36:03;92.63;;;26.27;;
16387;SDS011;8303;53.446;9.988;2023-02-15T07:38:32;74.00;;;28.90;;
16387;SDS011;8303;53.446;9.988;2023-02-15T07:41:01;58.73;;;25.23;;
16387;SDS011;8303;53.446;9.988;2023-02-15T07:43:29;57.57;;;27.37;;
16387;SDS011;8303;53.446;9.988;2023-02-15T07:45:58;65.80;;;26.87;;
16387;SDS011;8303;53.446;9.988;2023-02-15T07:48:27;61.37;;;28.10;;
16387;SDS011;8303;53.446;9.988;2023-02-15T07:50:53;97.67;;;26.67;;
16387;SDS011;8303;53.446;9.988;2023-02-15T07:53:24;49.03;;;25.10;;
16387;SDS011;8303;53.446;9.988;2023-02-15T07:55:51;69.77;;;26.17;;
16387;SDS011;8303;53.446;9.988;2023-02-15T07:58:18;60.73;;;25.10;;
16387;SDS011;8303;53.446;9.988;2023-02-15T08:00:45;45.83;;;24.47;;
16387;SDS011;8303;53.446;9.988;2023-02-15T08:03:28;56.83;;;25.57;;
16387;SDS011;8303;53.446;9.988;2023-02-15T08:05:56;57.47;;;25.87;;
16387;SDS011;8303;53.446;9.988;2023-02-15T08:08:24;49.00;;;24.23;;
16387;SDS011;8303;53.446;9.988;2023-02-15T08:10:58;48.63;;;23.37;;
16387;SDS011;8303;53.446;9.988;2023-02-15T08:13:43;47.40;;;24.47;;
16387;SDS011;8303;53.446;9.988;2023-02-15T08:16:20;39.90;;;22.87;;
16387;SDS011;8303;53.446;9.988;2023-02-15T08:18:50;44.30;;;24.17;;
16387;SDS011;8303;53.446;9.988;2023-02-15T08:21:17;42.93;;;23.17;;
16387;SDS011;8303;53.446;9.988;2023-02-15T08:23:44;47.37;;;22.53;;
16387;SDS011;8303;53.446;9.988;2023-02-15T08:26:11;51.27;;;24.43;;
16387;SDS011;8303;53.446;9.988;2023-02-15T08:28:39;47.10;;;24.13;;
16387;SDS011;8303;53.446;9.988;2023-02-15T08:31:06;42.67;;;22.80;;
16387;SDS011;8303;53.446;9.988;2023-02-15T08:33:34;45.30;;;24.97;;
16387;SDS011;8303;53.446;9.988;2023-02-15T08:36:03;52.47;;;25.30;;
16387;SDS011;8303;53.446;9.988;2023-02-15T08:38:31;40.50;;;23.47;;
16387;SDS011;8303;53.446;9.988;2023-02-15T08:40:58;48.20;;;24.30;;
16387;SDS011;8303;53.446;9.988;2023-02-15T08:43:35;45.43;;;24.97;;
16387;SDS011;8303;53.446;9.988;2023-02-15T08:46:02;45.53;;;23.87;;
16387;SDS011;8303;53.446;9.988;2023-02-15T08:48:29;52.33;;;24.83;;
16387;SDS011;8303;53.446;9.988;2023-02-15T08:50:56;48.13;;;22.97;;
16387;SDS011;8303;53.446;9.988;2023-02-15T08:53:24;42.27;;;23.97;;
16387;SDS011;8303;53.446;9.988;2023-02-15T08:55:54;39.80;;;23.00;;
16387;SDS011;8303;53.446;9.988;2023-02-15T08:58:22;45.87;;;23.00;;
16387;SDS011;8303;53.446;9.988;2023-02-15T09:00:49;38.70;;;24.07;;
16387;SDS011;8303;53.446;9.988;2023-02-15T09:03:16;41.17;;;23.70;;
16387;SDS011;8303;53.446;9.988;2023-02-15T09:05:43;38.37;;;22.60;;
16387;SDS011;8303;53.446;9.988;2023-02-15T09:08:10;45.70;;;24.40;;
16387;SDS011;8303;53.446;9.988;2023-02-15T09:10:38;38.10;;;23.07;;
16387;SDS011;8303;53.446;9.988;2023-02-15T09:13:05;40.27;;;23.17;;
16387;SDS011;8303;53.446;9.988;2023-02-15T09:15:32;41.43;;;23.10;;
16387;SDS011;8303;53.446;9.988;2023-02-15T09:17:59;45.90;;;23.33;;
16387;SDS011;8303;53.446;9.988;2023-02-15T09:20:30;40.40;;;23.33;;
16387;SDS011;8303;53.446;9.988;2023-02-15T09:22:58;39.63;;;23.00;;
16387;SDS011;8303;53.446;9.988;2023-02-15T09:25:25;35.40;;;21.83;;
16387;SDS011;8303;53.446;9.988;2023-02-15T09:27:53;34.03;;;21.63;;
16387;SDS011;8303;53.446;9.988;2023-02-15T09:30:20;37.67;;;22.77;;
16387;SDS011;8303;53.446;9.988;2023-02-15T09:32:47;37.23;;;22.60;;
16387;SDS011;8303;53.446;9.988;2023-02-15T09:35:14;36.37;;;21.23;;
16387;SDS011;8303;53.446;9.988;2023-02-15T09:37:41;34.93;;;21.93;;
16387;SDS011;8303;53.446;9.988;2023-02-15T09:40:08;35.63;;;22.87;;
16387;SDS011;8303;53.446;9.988;2023-02-15T09:42:48;36.13;;;22.77;;
16387;SDS011;8303;53.446;9.988;2023-02-15T09:45:42;37.60;;;23.37;;
16387;SDS011;8303;53.446;9.988;2023-02-15T09:48:29;34.87;;;22.47;;
16387;SDS011;8303;53.446;9.988;2023-02-15T09:51:26;38.57;;;21.83;;
16387;SDS011;8303;53.446;9.988;2023-02-15T09:54:08;38.83;;;22.00;;
16387;SDS011;8303;53.446;9.988;2023-02-15T09:56:55;34.90;;;22.60;;
16387;SDS011;8303;53.446;9.988;2023-02-15T09:59:29;35.87;;;22.40;;
16387;SDS011;8303;53.446;9.988;2023-02-15T10:02:06;33.37;;;21.77;;
16387;SDS011;8303;53.446;9.988;2023-02-15T10:04:47;31.53;;;20.73;;
16387;SDS011;8303;53.446;9.988;2023-02-15T10:07:29;38.53;;;21.67;;
16387;SDS011;8303;53.446;9.988;2023-02-15T10:10:15;33.43;;;19.87;;
16387;SDS011;8303;53.446;9.988;2023-02-15T10:12:56;34.93;;;21.70;;
16387;SDS011;8303;53.446;9.988;2023-02-15T10:18:29;37.43;;;22.70;;
16387;SDS011;8303;53.446;9.988;2023-02-15T10:21:07;34.23;;;21.00;;
16387;SDS011;8303;53.446;9.988;2023-02-15T10:23:49;33.00;;;21.67;;
16387;SDS011;8303;53.446;9.988;2023-02-15T10:26:27;32.17;;;21.37;;
16387;SDS011;8303;53.446;9.988;2023-02-15T10:28:59;34.77;;;20.93;;
16387;SDS011;8303;53.446;9.988;2023-02-15T10:31:32;34.20;;;20.53;;
16387;SDS011;8303;53.446;9.988;2023-02-15T10:34:16;31.60;;;20.10;;
16387;SDS011;8303;53.446;9.988;2023-02-15T10:36:58;30.80;;;21.33;;
16387;SDS011;8303;53.446;9.988;2023-02-15T10:39:45;29.80;;;19.70;;
16387;SDS011;8303;53.446;9.988;2023-02-15T10:42:20;32.50;;;20.43;;
16387;SDS011;8303;53.446;9.988;2023-02-15T10:45:03;33.93;;;19.40;;
16387;SDS011;8303;53.446;9.988;2023-02-15T10:47:44;31.37;;;19.50;;
16387;SDS011;8303;53.446;9.988;2023-02-15T10:50:30;31.37;;;20.53;;
16387;SDS011;8303;53.446;9.988;2023-02-15T10:53:11;31.73;;;20.93;;
16387;SDS011;8303;53.446;9.988;2023-02-15T10:56:03;31.47;;;20.80;;
16387;SDS011;8303;53.446;9.988;2023-02-15T10:58:39;29.50;;;20.03;;
16387;SDS011;8303;53.446;9.988;2023-02-15T11:01:17;32.87;;;22.27;;
16387;SDS011;8303;53.446;9.988;2023-02-15T11:03:54;29.63;;;19.27;;
16387;SDS011;8303;53.446;9.988;2023-02-15T11:06:41;29.63;;;19.23;;
16387;SDS011;8303;53.446;9.988;2023-02-15T11:09:13;32.33;;;20.17;;
16387;SDS011;8303;53.446;9.988;2023-02-15T11:11:44;32.23;;;20.10;;
16387;SDS011;8303;53.446;9.988;2023-02-15T11:14:14;30.73;;;20.73;;
16387;SDS011;8303;53.446;9.988;2023-02-15T11:16:45;32.10;;;21.13;;
16387;SDS011;8303;53.446;9.988;2023-02-15T11:19:18;29.10;;;20.23;;
16387;SDS011;8303;53.446;9.988;2023-02-15T11:21:48;32.53;;;20.83;;
16387;SDS011;8303;53.446;9.988;2023-02-15T11:24:19;33.20;;;21.43;;
16387;SDS011;8303;53.446;9.988;2023-02-15T11:26:47;36.90;;;21.97;;
16387;SDS011;8303;53.446;9.988;2023-02-15T11:29:18;29.87;;;21.23;;
16387;SDS011;8303;53.446;9.988;2023-02-15T11:31:53;35.03;;;20.87;;
16387;SDS011;8303;53.446;9.988;2023-02-15T11:34:23;35.30;;;21.83;;
16387;SDS011;8303;53.446;9.988;2023-02-15T11:36:55;31.07;;;21.23;;
16387;SDS011;8303;53.446;9.988;2023-02-15T11:39:28;27.13;;;19.90;;
16387;SDS011;8303;53.446;9.988;2023-02-15T11:41:57;32.33;;;21.03;;
16387;SDS011;8303;53.446;9.988;2023-02-15T11:44:30;31.33;;;20.27;;
16387;SDS011;8303;53.446;9.988;2023-02-15T11:46:59;32.83;;;22.10;;
16387;SDS011;8303;53.446;9.988;2023-02-15T11:49:29;32.87;;;21.43;;
16387;SDS011;8303;53.446;9.988;2023-02-15T11:51:57;34.17;;;21.13;;
16387;SDS011;8303;53.446;9.988;2023-02-15T11:54:26;34.60;;;22.17;;
16387;SDS011;8303;53.446;9.988;2023-02-15T11:56:58;29.37;;;20.10;;
16387;SDS011;8303;53.446;9.988;2023-02-15T11:59:28;32.43;;;21.43;;
16387;SDS011;8303;53.446;9.988;2023-02-15T12:01:58;33.27;;;21.00;;
16387;SDS011;8303;53.446;9.988;2023-02-15T12:04:26;33.83;;;21.60;;
16387;SDS011;8303;53.446;9.988;2023-02-15T12:06:59;31.43;;;21.03;;
16387;SDS011;8303;53.446;9.988;2023-02-15T12:09:33;31.87;;;20.43;;
16387;SDS011;8303;53.446;9.988;2023-02-15T12:12:22;31.37;;;20.33;;
16387;SDS011;8303;53.446;9.988;2023-02-15T12:14:51;31.03;;;21.07;;
16387;SDS011;8303;53.446;9.988;2023-02-15T12:17:20;28.70;;;20.43;;
16387;SDS011;8303;53.446;9.988;2023-02-15T12:19:50;28.50;;;21.20;;
16387;SDS011;8303;53.446;9.988;2023-02-15T12:22:22;31.93;;;20.00;;
16387;SDS011;8303;53.446;9.988;2023-02-15T12:24:51;35.43;;;20.27;;
16387;SDS011;8303;53.446;9.988;2023-02-15T12:27:20;31.87;;;20.60;;
16387;SDS011;8303;53.446;9.988;2023-02-15T12:29:50;30.07;;;20.80;;
16387;SDS011;8303;53.446;9.988;2023-02-15T12:32:21;29.63;;;20.37;;
16387;SDS011;8303;53.446;9.988;2023-02-15T12:34:51;31.13;;;20.33;;
16387;SDS011;8303;53.446;9.988;2023-02-15T12:37:25;30.33;;;20.27;;
16387;SDS011;8303;53.446;9.988;2023-02-15T12:39:57;31.57;;;20.57;;
16387;SDS011;8303;53.446;9.988;2023-02-15T12:42:25;33.00;;;21.17;;
16387;SDS011;8303;53.446;9.988;2023-02-15T12:44:55;28.70;;;20.93;;
16387;SDS011;8303;53.446;9.988;2023-02-15T12:47:24;30.50;;;21.00;;
16387;SDS011;8303;53.446;9.988;2023-02-15T12:50:07;30.43;;;21.37;;
16387;SDS011;8303;53.446;9.988;2023-02-15T12:52:41;30.83;;;20.37;;
16387;SDS011;8303;53.446;9.988;2023-02-15T12:55:18;29.87;;;20.10;;
16387;SDS011;8303;53.446;9.988;2023-02-15T12:57:47;32.77;;;20.93;;
16387;SDS011;8303;53.446;9.988;2023-02-15T13:00:26;33.20;;;21.70;;
16387;SDS011;8303;53.446;9.988;2023-02-15T13:02:57;31.57;;;21.03;;
16387;SDS011;8303;53.446;9.988;2023-02-15T13:05:29;36.30;;;21.53;;
16387;SDS011;8303;53.446;9.988;2023-02-15T13:08:00;35.77;;;23.43;;
16387;SDS011;8303;53.446;9.988;2023-02-15T13:10:31;30.53;;;21.07;;
16387;SDS011;8303;53.446;9.988;2023-02-15T13:12:59;34.90;;;22.07;;
16387;SDS011;8303;53.446;9.988;2023-02-15T13:15:32;35.83;;;22.37;;
16387;SDS011;8303;53.446;9.988;2023-02-15T13:18:02;39.03;;;23.67;;
16387;SDS011;8303;53.446;9.988;2023-02-15T13:20:37;37.57;;;22.73;;
16387;SDS011;8303;53.446;9.988;2023-02-15T13:23:08;33.43;;;21.83;;
16387;SDS011;8303;53.446;9.988;2023-02-15T13:25:47;33.63;;;21.87;;
16387;SDS011;8303;53.446;9.988;2023-02-15T13:28:16;33.77;;;21.80;;
16387;SDS011;8303;53.446;9.988;2023-02-15T13:30:46;33.20;;;21.47;;
16387;SDS011;8303;53.446;9.988;2023-02-15T13:33:16;34.50;;;21.73;;
16387;SDS011;8303;53.446;9.988;2023-02-15T13:35:54;38.60;;;21.97;;
16387;SDS011;8303;53.446;9.988;2023-02-15T13:41:25;32.47;;;21.83;;
16387;SDS011;8303;53.446;9.988;2023-02-15T13:43:59;32.53;;;20.90;;
16387;SDS011;8303;53.446;9.988;2023-02-15T13:46:42;34.37;;;21.97;;
16387;SDS011;8303;53.446;9.988;2023-02-15T13:49:21;34.27;;;21.40;;
16387;SDS011;8303;53.446;9.988;2023-02-15T13:51:59;32.00;;;21.90;;
16387;SDS011;8303;53.446;9.988;2023-02-15T13:57:47;33.27;;;20.50;;
16387;SDS011;8303;53.446;9.988;2023-02-15T14:00:29;32.47;;;21.67;;
16387;SDS011;8303;53.446;9.988;2023-02-15T14:03:11;31.47;;;20.73;;
16387;SDS011;8303;53.446;9.988;2023-02-15T14:06:07;32.73;;;20.07;;
16387;SDS011;8303;53.446;9.988;2023-02-15T14:08:45;36.53;;;21.47;;
16387;SDS011;8303;53.446;9.988;2023-02-15T14:11:26;31.57;;;21.30;;
16387;SDS011;8303;53.446;9.988;2023-02-15T14:14:11;35.17;;;21.50;;
16387;SDS011;8303;53.446;9.988;2023-02-15T14:17:07;29.37;;;20.60;;
16387;SDS011;8303;53.446;9.988;2023-02-15T14:19:43;32.97;;;20.67;;
16387;SDS011;8303;53.446;9.988;2023-02-15T14:22:17;32.30;;;21.10;;
16387;SDS011;8303;53.446;9.988;2023-02-15T14:24:53;32.60;;;21.63;;
16387;SDS011;8303;53.446;9.988;2023-02-15T14:27:34;31.60;;;20.93;;
16387;SDS011;8303;53.446;9.988;2023-02-15T14:30:13;33.13;;;20.83;;
16387;SDS011;8303;53.446;9.988;2023-02-15T14:32:45;28.63;;;20.03;;
16387;SDS011;8303;53.446;9.988;2023-02-15T14:35:15;29.87;;;21.20;;
16387;SDS011;8303;53.446;9.988;2023-02-15T14:37:45;28.20;;;20.40;;
16387;SDS011;8303;53.446;9.988;2023-02-15T14:40:19;29.80;;;20.07;;
16387;SDS011;8303;53.446;9.988;2023-02-15T14:43:15;31.77;;;20.80;;
16387;SDS011;8303;53.446;9.988;2023-02-15T14:45:52;30.60;;;20.97;;
16387;SDS011;8303;53.446;9.988;2023-02-15T14:48:21;31.20;;;20.90;;
16387;SDS011;8303;53.446;9.988;2023-02-15T14:50:51;29.60;;;19.87;;
16387;SDS011;8303;53.446;9.988;2023-02-15T14:53:34;34.63;;;21.20;;
16387;SDS011;8303;53.446;9.988;2023-02-15T14:59:12;31.47;;;21.47;;
16387;SDS011;8303;53.446;9.988;2023-02-15T15:01:42;32.03;;;21.10;;
16387;SDS011;8303;53.446;9.988;2023-02-15T15:04:22;36.60;;;23.13;;
16387;SDS011;8303;53.446;9.988;2023-02-15T15:07:00;30.97;;;21.37;;
16387;SDS011;8303;53.446;9.988;2023-02-15T15:09:35;35.43;;;23.03;;
16387;SDS011;8303;53.446;9.988;2023-02-15T15:12:15;30.30;;;20.83;;
16387;SDS011;8303;53.446;9.988;2023-02-15T15:15:03;31.20;;;21.07;;
16387;SDS011;8303;53.446;9.988;2023-02-15T15:23:36;34.77;;;21.97;;
16387;SDS011;8303;53.446;9.988;2023-02-15T15:26:22;33.83;;;21.83;;
16387;SDS011;8303;53.446;9.988;2023-02-15T15:28:57;32.47;;;21.27;;
16387;SDS011;8303;53.446;9.988;2023-02-15T15:31:30;35.90;;;22.87;;
16387;SDS011;8303;53.446;9.988;2023-02-15T15:34:15;33.90;;;22.27;;
16387;SDS011;8303;53.446;9.988;2023-02-15T15:46:41;36.40;;;23.97;;
16387;SDS011;8303;53.446;9.988;2023-02-15T15:49:28;36.30;;;23.00;;
16387;SDS011;8303;53.446;9.988;2023-02-15T15:51:59;37.17;;;22.70;;
16387;SDS011;8303;53.446;9.988;2023-02-15T15:54:27;37.40;;;22.77;;
16387;SDS011;8303;53.446;9.988;2023-02-15T15:56:55;37.10;;;23.67;;
16387;SDS011;8303;53.446;9.988;2023-02-15T15:59:27;37.23;;;23.30;;
16387;SDS011;8303;53.446;9.988;2023-02-15T16:01:56;37.23;;;23.73;;
16387;SDS011;8303;53.446;9.988;2023-02-15T16:04:31;45.27;;;24.57;;
16387;SDS011;8303;53.446;9.988;2023-02-15T16:07:09;39.70;;;25.50;;
16387;SDS011;8303;53.446;9.988;2023-02-15T16:09:53;41.93;;;24.83;;
16387;SDS011;8303;53.446;9.988;2023-02-15T16:12:21;39.63;;;24.60;;
16387;SDS011;8303;53.446;9.988;2023-02-15T16:14:50;40.03;;;24.57;;
16387;SDS011;8303;53.446;9.988;2023-02-15T16:17:19;38.50;;;24.47;;
16387;SDS011;8303;53.446;9.988;2023-02-15T16:19:48;47.50;;;26.73;;
16387;SDS011;8303;53.446;9.988;2023-02-15T16:22:18;43.87;;;24.37;;
16387;SDS011;8303;53.446;9.988;2023-02-15T16:27:56;43.03;;;25.70;;
16387;SDS011;8303;53.446;9.988;2023-02-15T16:30:28;45.03;;;27.43;;
16387;SDS011;8303;53.446;9.988;2023-02-15T16:33:03;42.43;;;26.70;;
16387;SDS011;8303;53.446;9.988;2023-02-15T16:35:31;52.87;;;27.87;;
16387;SDS011;8303;53.446;9.988;2023-02-15T16:37:59;46.57;;;28.50;;
16387;SDS011;8303;53.446;9.988;2023-02-15T16:40:34;51.43;;;28.17;;
16387;SDS011;8303;53.446;9.988;2023-02-15T16:43:10;48.80;;;27.80;;
16387;SDS011;8303;53.446;9.988;2023-02-15T16:45:42;55.43;;;28.97;;
16387;SDS011;8303;53.446;9.988;2023-02-15T16:48:12;50.37;;;29.00;;
16387;SDS011;8303;53.446;9.988;2023-02-15T16:50:49;54.27;;;29.87;;
16387;SDS011;8303;53.446;9.988;2023-02-15T16:53:20;51.87;;;29.60;;
16387;SDS011;8303;53.446;9.988;2023-02-15T16:55:50;55.23;;;30.73;;
16387;SDS011;8303;53.446;9.988;2023-02-15T16:58:22;56.93;;;31.20;;
16387;SDS011;8303;53.446;9.988;2023-02-15T17:00:58;54.93;;;31.43;;
16387;SDS011;8303;53.446;9.988;2023-02-15T17:03:27;60.00;;;32.07;;
16387;SDS011;8303;53.446;9.988;2023-02-15T17:05:55;63.03;;;32.13;;
16387;SDS011;8303;53.446;9.988;2023-02-15T17:08:27;56.57;;;31.30;;
16387;SDS011;8303;53.446;9.988;2023-02-15T17:11:04;59.73;;;32.33;;
16387;SDS011;8303;53.446;9.988;2023-02-15T17:13:39;56.87;;;30.73;;
16387;SDS011;8303;53.446;9.988;2023-02-15T17:16:32;57.93;;;31.70;;
16387;SDS011;8303;53.446;9.988;2023-02-15T17:19:01;61.27;;;32.63;;
16387;SDS011;8303;53.446;9.988;2023-02-15T17:21:35;62.87;;;31.27;;
16387;SDS011;8303;53.446;9.988;2023-02-15T17:24:06;61.23;;;34.63;;
16387;SDS011;8303;53.446;9.988;2023-02-15T17:26:43;63.47;;;33.40;;
16387;SDS011;8303;53.446;9.988;2023-02-15T17:29:17;59.80;;;33.20;;
16387;SDS011;8303;53.446;9.988;2023-02-15T17:31:51;60.10;;;32.50;;
16387;SDS011;8303;53.446;9.988;2023-02-15T17:34:41;66.63;;;33.77;;
16387;SDS011;8303;53.446;9.988;2023-02-15T17:37:41;62.70;;;32.60;;
16387;SDS011;8303;53.446;9.988;2023-02-15T17:40:14;62.20;;;33.17;;
16387;SDS011;8303;53.446;9.988;2023-02-15T17:42:45;60.37;;;33.93;;
16387;SDS011;8303;53.446;9.988;2023-02-15T17:45:12;72.73;;;34.67;;
16387;SDS011;8303;53.446;9.988;2023-02-15T17:47:41;61.00;;;33.77;;
16387;SDS011;8303;53.446;9.988;2023-02-15T17:50:11;61.07;;;32.63;;
16387;SDS011;8303;53.446;9.988;2023-02-15T17:52:45;65.73;;;34.37;;
16387;SDS011;8303;53.446;9.988;2023-02-15T17:55:13;63.00;;;33.70;;
16387;SDS011;8303;53.446;9.988;2023-02-15T17:57:59;63.17;;;35.93;;
16387;SDS011;8303;53.446;9.988;2023-02-15T18:00:27;64.67;;;32.33;;
16387;SDS011;8303;53.446;9.988;2023-02-15T18:03:14;62.07;;;32.23;;
16387;SDS011;8303;53.446;9.988;2023-02-15T18:05:58;63.07;;;32.00;;
16387;SDS011;8303;53.446;9.988;2023-02-15T18:08:43;61.43;;;32.10;;
16387;SDS011;8303;53.446;9.988;2023-02-15T18:11:28;58.03;;;31.80;;
16387;SDS011;8303;53.446;9.988;2023-02-15T18:14:01;67.27;;;34.10;;
16387;SDS011;8303;53.446;9.988;2023-02-15T18:16:30;61.43;;;32.27;;
16387;SDS011;8303;53.446;9.988;2023-02-15T18:19:00;57.27;;;31.50;;
16387;SDS011;8303;53.446;9.988;2023-02-15T18:21:29;60.00;;;31.67;;
16387;SDS011;8303;53.446;9.988;2023-02-15T18:23:57;60.83;;;33.07;;
16387;SDS011;8303;53.446;9.988;2023-02-15T18:26:24;58.80;;;32.37;;
16387;SDS011;8303;53.446;9.988;2023-02-15T18:28:51;62.57;;;32.97;;
16387;SDS011;8303;53.446;9.988;2023-02-15T18:31:18;61.93;;;31.97;;
16387;SDS011;8303;53.446;9.988;2023-02-15T18:33:46;65.40;;;33.93;;
16387;SDS011;8303;53.446;9.988;2023-02-15T18:36:18;68.40;;;34.00;;
16387;SDS011;8303;53.446;9.988;2023-02-15T18:38:48;63.87;;;33.40;;
16387;SDS011;8303;53.446;9.988;2023-02-15T18:41:16;65.00;;;33.70;;
16387;SDS011;8303;53.446;9.988;2023-02-15T18:43:44;62.17;;;33.37;;
16387;SDS011;8303;53.446;9.988;2023-02-15T18:46:11;64.17;;;33.43;;
16387;SDS011;8303;53.446;9.988;2023-02-15T18:48:38;66.80;;;35.10;;
16387;SDS011;8303;53.446;9.988;2023-02-15T18:51:04;64.63;;;35.67;;
16387;SDS011;8303;53.446;9.988;2023-02-15T18:53:40;62.53;;;35.43;;
16387;SDS011;8303;53.446;9.988;2023-02-15T18:56:08;62.70;;;32.50;;
16387;SDS011;8303;53.446;9.988;2023-02-15T18:58:40;63.67;;;33.00;;
16387;SDS011;8303;53.446;9.988;2023-02-15T19:01:10;58.67;;;33.00;;
16387;SDS011;8303;53.446;9.988;2023-02-15T19:03:41;60.87;;;33.30;;
16387;SDS011;8303;53.446;9.988;2023-02-15T19:06:09;58.97;;;34.17;;
16387;SDS011;8303;53.446;9.988;2023-02-15T19:08:37;63.90;;;35.63;;
16387;SDS011;8303;53.446;9.988;2023-02-15T19:11:08;68.77;;;34.23;;
16387;SDS011;8303;53.446;9.988;2023-02-15T19:13:41;71.67;;;35.57;;
16387;SDS011;8303;53.446;9.988;2023-02-15T19:16:08;64.87;;;35.40;;
16387;SDS011;8303;53.446;9.988;2023-02-15T19:18:52;64.70;;;34.73;;
16387;SDS011;8303;53.446;9.988;2023-02-15T19:21:19;64.07;;;34.97;;
16387;SDS011;8303;53.446;9.988;2023-02-15T19:23:48;69.63;;;36.17;;
16387;SDS011;8303;53.446;9.988;2023-02-15T19:26:21;65.53;;;35.30;;
16387;SDS011;8303;53.446;9.988;2023-02-15T19:28:48;67.63;;;35.47;;
16387;SDS011;8303;53.446;9.988;2023-02-15T19:31:16;67.83;;;35.37;;
16387;SDS011;8303;53.446;9.988;2023-02-15T19:33:43;69.80;;;35.87;;
16387;SDS011;8303;53.446;9.988;2023-02-15T19:36:13;68.87;;;36.87;;
16387;SDS011;8303;53.446;9.988;2023-02-15T19:38:43;63.60;;;33.47;;
16387;SDS011;8303;53.446;9.988;2023-02-15T19:41:15;62.83;;;33.83;;
16387;SDS011;8303;53.446;9.988;2023-02-15T19:43:48;71.23;;;35.30;;
16387;SDS011;8303;53.446;9.988;2023-02-15T19:46:19;69.57;;;36.07;;
16387;SDS011;8303;53.446;9.988;2023-02-15T19:48:47;67.90;;;35.47;;
16387;SDS011;8303;53.446;9.988;2023-02-15T19:51:14;75.53;;;36.50;;
16387;SDS011;8303;53.446;9.988;2023-02-15T19:53:41;65.03;;;35.63;;
16387;SDS011;8303;53.446;9.988;2023-02-15T19:56:10;62.47;;;33.80;;
16387;SDS011;8303;53.446;9.988;2023-02-15T19:58:38;60.63;;;33.47;;
16387;SDS011;8303;53.446;9.988;2023-02-15T20:01:06;66.70;;;34.57;;
16387;SDS011;8303;53.446;9.988;2023-02-15T20:03:34;72.13;;;37.37;;
16387;SDS011;8303;53.446;9.988;2023-02-15T20:06:01;68.53;;;36.73;;
16387;SDS011;8303;53.446;9.988;2023-02-15T20:08:28;67.30;;;35.50;;
16387;SDS011;8303;53.446;9.988;2023-02-15T20:10:57;65.53;;;37.90;;
16387;SDS011;8303;53.446;9.988;2023-02-15T20:13:24;66.33;;;36.70;;
16387;SDS011;8303;53.446;9.988;2023-02-15T20:15:52;66.77;;;35.43;;
16387;SDS011;8303;53.446;9.988;2023-02-15T20:18:21;74.70;;;37.73;;
16387;SDS011;8303;53.446;9.988;2023-02-15T20:20:49;78.73;;;39.13;;
16387;SDS011;8303;53.446;9.988;2023-02-15T20:23:18;69.27;;;38.27;;
16387;SDS011;8303;53.446;9.988;2023-02-15T20:25:47;76.80;;;39.43;;
16387;SDS011;8303;53.446;9.988;2023-02-15T20:28:17;74.53;;;37.77;;
16387;SDS011;8303;53.446;9.988;2023-02-15T20:30:46;73.20;;;38.17;;
16387;SDS011;8303;53.446;9.988;2023-02-15T20:33:13;78.83;;;38.67;;
16387;SDS011;8303;53.446;9.988;2023-02-15T20:35:43;79.40;;;38.87;;
16387;SDS011;8303;53.446;9.988;2023-02-15T20:38:13;71.90;;;37.50;;
16387;SDS011;8303;53.446;9.988;2023-02-15T20:40:43;75.60;;;37.43;;
16387;SDS011;8303;53.446;9.988;2023-02-15T20:43:24;74.23;;;37.77;;
16387;SDS011;8303;53.446;9.988;2023-02-15T20:45:51;70.40;;;36.23;;
16387;SDS011;8303;53.446;9.988;2023-02-15T20:48:18;74.10;;;37.33;;
16387;SDS011;8303;53.446;9.988;2023-02-15T20:50:46;65.43;;;36.07;;
16387;SDS011;8303;53.446;9.988;2023-02-15T20:53:13;71.40;;;35.77;;
16387;SDS011;8303;53.446;9.988;2023-02-15T20:55:40;73.97;;;37.93;;
16387;SDS011;8303;53.446;9.988;2023-02-15T20:58:12;83.07;;;40.60;;
16387;SDS011;8303;53.446;9.988;2023-02-15T21:00:46;68.37;;;36.40;;
16387;SDS011;8303;53.446;9.988;2023-02-15T21:03:13;70.33;;;35.73;;
16387;SDS011;8303;53.446;9.988;2023-02-15T21:05:40;64.97;;;35.37;;
16387;SDS011;8303;53.446;9.988;2023-02-15T21:08:12;71.83;;;36.90;;
16387;SDS011;8303;53.446;9.988;2023-02-15T21:10:41;61.33;;;33.67;;
16387;SDS011;8303;53.446;9.988;2023-02-15T21:13:14;68.33;;;35.30;;
16387;SDS011;8303;53.446;9.988;2023-02-15T21:15:46;60.77;;;33.73;;
16387;SDS011;8303;53.446;9.988;2023-02-15T21:18:15;59.33;;;32.30;;
16387;SDS011;8303;53.446;9.988;2023-02-15T21:20:44;51.73;;;30.37;;